Time;durP1;ratioP1;P1;durP2;ratioP2;P2;SDS_P1;SDS_P2;PMS_P1;PMS_P2;Temp;Humidity;BMP_temperature;BMP_pressure;BME280_temperature;BME280_humidity;BME280_pressure;Samples;Min_cycle;Max_cycle;Signal;HPM_P1;HPM_P2
2020/12/13 00:00:33;;;;;;;50.65;23.75;;;;;;;;;;5050231;28;20017;-69
2020/12/13 00:02:58;;;;;;;50.70;22.95;;;;;;;;;;5050410;28;20025;-67
2020/12/13 00:05:23;;;;;;;52.50;22.75;;;;;;;;;;5050089;28;20032;-68
2020/12/13 00:07:49;;;;;;;58.75;22.23;;;;;;;;;;5049187;28;20103;-67
2020/12/13 00:10:15;;;;;;;56.58;24.80;;;;;;;;;;5050511;28;20047;-68
2020/12/13 00:12:40;;;;;;;56.58;25.48;;;;;;;;;;5048709;28;20024;-69
2020/12/13 00:15:05;;;;;;;59.65;26.60;;;;;;;;;;5046782;28;20025;-67
2020/12/13 00:17:30;;;;;;;61.90;25.40;;;;;;;;;;5049098;28;20102;-68
2020/12/13 00:19:55;;;;;;;54.42;23.15;;;;;;;;;;5051540;28;20125;-68
2020/12/13 00:22:21;;;;;;;64.28;24.90;;;;;;;;;;5050819;28;20024;-68
2020/12/13 00:24:46;;;;;;;55.53;24.37;;;;;;;;;;5049297;28;20021;-68
2020/12/13 00:27:12;;;;;;;49.60;22.58;;;;;;;;;;5050406;28;20282;-69
2020/12/13 00:29:37;;;;;;;52.28;23.85;;;;;;;;;;5050121;28;21619;-68
2020/12/13 00:32:02;;;;;;;60.47;24.47;;;;;;;;;;5050197;28;20796;-68
2020/12/13 00:34:27;;;;;;;47.50;22.77;;;;;;;;;;5049727;28;20259;-68
2020/12/13 00:36:53;;;;;;;53.03;23.93;;;;;;;;;;5050385;28;20827;-68
2020/12/13 00:39:18;;;;;;;53.80;22.38;;;;;;;;;;5049495;28;20282;-68
2020/12/13 00:41:50;;;;;;;58.03;24.48;;;;;;;;;;5049959;28;20666;-68
2020/12/13 00:44:15;;;;;;;64.35;26.90;;;;;;;;;;5047534;28;20029;-68
2020/12/13 00:46:40;;;;;;;60.92;23.45;;;;;;;;;;5050605;28;20033;-68
2020/12/13 00:49:05;;;;;;;58.92;25.02;;;;;;;;;;5048368;28;20103;-68
2020/12/13 00:51:30;;;;;;;55.77;24.77;;;;;;;;;;5049926;28;20114;-68
2020/12/13 00:53:56;;;;;;;51.40;22.60;;;;;;;;;;5049586;28;20321;-68
2020/12/13 00:56:21;;;;;;;50.28;19.77;;;;;;;;;;5049537;28;20269;-68
2020/12/13 00:58:46;;;;;;;38.95;19.85;;;;;;;;;;5049678;28;20023;-67
2020/12/13 01:01:11;;;;;;;47.30;21.47;;;;;;;;;;5045826;28;20025;-68
2020/12/13 01:03:36;;;;;;;58.07;23.07;;;;;;;;;;5044775;28;20318;-67
2020/12/13 01:06:02;;;;;;;52.47;24.03;;;;;;;;;;5048205;28;20326;-68
2020/12/13 01:08:27;;;;;;;56.00;24.20;;;;;;;;;;5049438;28;20347;-67
2020/12/13 01:10:52;;;;;;;58.28;24.17;;;;;;;;;;5049491;28;20025;-68
2020/12/13 01:13:17;;;;;;;64.13;25.27;;;;;;;;;;5045597;28;20260;-68
2020/12/13 01:15:42;;;;;;;57.07;23.27;;;;;;;;;;5049114;28;20031;-67
2020/12/13 01:18:08;;;;;;;50.53;21.55;;;;;;;;;;5048943;28;20663;-68
2020/12/13 01:20:33;;;;;;;55.17;23.70;;;;;;;;;;5048568;28;20054;-68
2020/12/13 01:22:58;;;;;;;51.10;21.10;;;;;;;;;;5047814;28;20036;-68
2020/12/13 01:25:23;;;;;;;61.70;25.53;;;;;;;;;;5049718;28;20037;-67
2020/12/13 01:27:48;;;;;;;54.47;23.47;;;;;;;;;;5049275;28;20263;-68
2020/12/13 01:30:13;;;;;;;60.78;26.25;;;;;;;;;;5055005;28;20277;-68
2020/12/13 01:32:39;;;;;;;55.10;21.20;;;;;;;;;;5047773;28;21118;-68
2020/12/13 01:35:05;;;;;;;54.10;22.40;;;;;;;;;;5047352;28;20109;-69
2020/12/13 01:37:30;;;;;;;56.05;25.20;;;;;;;;;;5049506;28;20380;-68
2020/12/13 01:39:55;;;;;;;69.40;26.42;;;;;;;;;;5030720;28;20028;-68
2020/12/13 01:42:20;;;;;;;61.92;26.23;;;;;;;;;;5049199;28;20021;-68
2020/12/13 01:44:45;;;;;;;58.43;25.50;;;;;;;;;;5070543;23;20367;-67
2020/12/13 01:47:11;;;;;;;58.75;25.00;;;;;;;;;;5026725;28;20375;-67
2020/12/13 01:49:40;;;;;;;62.25;24.33;;;;;;;;;;5029273;28;20132;-66
2020/12/13 01:54:32;;;;;;;64.03;24.55;;;;;;;;;;5026747;28;20032;-67
2020/12/13 01:57:00;;;;;;;67.13;26.35;;;;;;;;;;5029194;28;20099;-67
2020/12/13 01:59:26;;;;;;;73.97;26.35;;;;;;;;;;5027940;28;20466;-67
2020/12/13 02:02:03;;;;;;;65.30;25.98;;;;;;;;;;5027533;28;20017;-67
2020/12/13 02:04:31;;;;;;;71.15;27.30;;;;;;;;;;5021775;28;20017;-69
2020/12/13 02:06:59;;;;;;;60.97;25.55;;;;;;;;;;5028176;28;20466;-67
2020/12/13 02:09:24;;;;;;;70.00;25.70;;;;;;;;;;5023602;28;20021;-67
2020/12/13 02:11:50;;;;;;;66.75;25.85;;;;;;;;;;5028310;28;20123;-66
2020/12/13 02:14:16;;;;;;;65.80;26.95;;;;;;;;;;5028371;28;20048;-66
2020/12/13 02:16:44;;;;;;;66.10;24.70;;;;;;;;;;5024473;28;20541;-67
2020/12/13 02:19:11;;;;;;;65.78;26.88;;;;;;;;;;5026306;28;20121;-66
2020/12/13 02:21:38;;;;;;;75.43;27.77;;;;;;;;;;5029158;28;20009;-67
2020/12/13 02:24:03;;;;;;;71.47;27.35;;;;;;;;;;5027602;28;21006;-67
2020/12/13 02:26:29;;;;;;;86.30;28.48;;;;;;;;;;5031519;28;20026;-67
2020/12/13 02:28:54;;;;;;;81.30;31.30;;;;;;;;;;5027876;28;20022;-67
2020/12/13 02:31:19;;;;;;;80.27;27.07;;;;;;;;;;5033432;28;20034;-67
2020/12/13 02:33:44;;;;;;;78.70;27.50;;;;;;;;;;5031983;28;20768;-67
2020/12/13 02:36:10;;;;;;;75.47;27.27;;;;;;;;;;5028336;28;20267;-67
2020/12/13 02:38:35;;;;;;;80.25;28.55;;;;;;;;;;5032072;28;20151;-67
2020/12/13 02:41:01;;;;;;;75.93;29.35;;;;;;;;;;5031464;28;20018;-67
2020/12/13 02:43:26;;;;;;;72.40;29.92;;;;;;;;;;5029438;28;20029;-67
2020/12/13 02:45:52;;;;;;;87.60;30.20;;;;;;;;;;5031026;28;20022;-67
2020/12/13 02:48:17;;;;;;;69.40;27.90;;;;;;;;;;5034093;28;20020;-67
2020/12/13 02:50:42;;;;;;;78.20;29.33;;;;;;;;;;5032370;28;20096;-67
2020/12/13 02:53:07;;;;;;;91.27;32.63;;;;;;;;;;5031954;28;20029;-67
2020/12/13 02:55:32;;;;;;;92.78;33.42;;;;;;;;;;5030489;28;20310;-67
2020/12/13 02:57:57;;;;;;;100.63;32.83;;;;;;;;;;5030556;28;20028;-67
2020/12/13 03:00:23;;;;;;;102.88;37.63;;;;;;;;;;5030547;28;20795;-66
2020/12/13 03:02:48;;;;;;;98.38;35.53;;;;;;;;;;5030927;28;20030;-67
2020/12/13 03:05:13;;;;;;;96.70;38.37;;;;;;;;;;5027424;28;20026;-67
2020/12/13 03:07:38;;;;;;;83.80;33.95;;;;;;;;;;5036368;28;20264;-67
2020/12/13 03:10:03;;;;;;;91.37;34.93;;;;;;;;;;5031662;28;20096;-67
2020/12/13 03:12:29;;;;;;;85.95;34.90;;;;;;;;;;5029461;28;21004;-67
2020/12/13 03:14:54;;;;;;;78.20;34.45;;;;;;;;;;5029899;28;20028;-67
2020/12/13 03:17:19;;;;;;;69.60;31.73;;;;;;;;;;5030847;28;20460;-67
2020/12/13 03:19:44;;;;;;;64.05;28.48;;;;;;;;;;5029783;28;20060;-66
2020/12/13 03:22:10;;;;;;;63.30;27.90;;;;;;;;;;5031491;28;20034;-67
2020/12/13 03:24:35;;;;;;;60.88;30.23;;;;;;;;;;5028473;28;20267;-67
2020/12/13 03:27:00;;;;;;;57.73;28.60;;;;;;;;;;5030195;28;20415;-67
2020/12/13 03:29:25;;;;;;;62.10;27.73;;;;;;;;;;5030355;28;20271;-67
2020/12/13 03:31:50;;;;;;;60.40;27.05;;;;;;;;;;5012760;28;20272;-66
2020/12/13 03:34:15;;;;;;;60.90;28.87;;;;;;;;;;5029099;28;20264;-67
2020/12/13 03:36:41;;;;;;;66.28;30.52;;;;;;;;;;5029522;28;20272;-67
2020/12/13 03:39:06;;;;;;;64.35;29.42;;;;;;;;;;5031070;28;20056;-67
2020/12/13 03:41:31;;;;;;;61.47;29.20;;;;;;;;;;5030598;28;20362;-67
2020/12/13 03:43:56;;;;;;;66.10;29.85;;;;;;;;;;5030587;28;20613;-67
2020/12/13 03:46:21;;;;;;;66.45;28.73;;;;;;;;;;5030978;28;20056;-67
2020/12/13 03:48:46;;;;;;;56.58;26.45;;;;;;;;;;5031341;28;20318;-67
2020/12/13 03:51:12;;;;;;;60.05;27.77;;;;;;;;;;5031179;28;20732;-67
2020/12/13 03:53:37;;;;;;;59.47;26.42;;;;;;;;;;5030300;28;20040;-66
2020/12/13 03:56:02;;;;;;;55.73;24.33;;;;;;;;;;5030662;28;20496;-67
2020/12/13 03:58:27;;;;;;;46.25;20.77;;;;;;;;;;5031767;28;20252;-66
2020/12/13 04:00:52;;;;;;;56.15;26.42;;;;;;;;;;5030752;28;20037;-67
2020/12/13 04:03:17;;;;;;;65.43;30.15;;;;;;;;;;5030543;28;20433;-67
2020/12/13 04:05:43;;;;;;;77.22;31.42;;;;;;;;;;5030611;28;20027;-67
2020/12/13 04:08:08;;;;;;;67.35;31.30;;;;;;;;;;5030954;28;20072;-66
2020/12/13 04:10:33;;;;;;;81.50;32.42;;;;;;;;;;5030542;28;20386;-66
2020/12/13 04:12:59;;;;;;;76.43;31.48;;;;;;;;;;5031086;28;20280;-67
2020/12/13 04:15:24;;;;;;;80.55;32.67;;;;;;;;;;5029473;28;20025;-67
2020/12/13 04:17:49;;;;;;;73.23;31.57;;;;;;;;;;5030446;28;20583;-67
2020/12/13 04:20:14;;;;;;;68.50;28.98;;;;;;;;;;5030401;28;20324;-67
2020/12/13 04:22:39;;;;;;;66.43;29.40;;;;;;;;;;5030505;28;20060;-66
2020/12/13 04:25:05;;;;;;;72.00;31.83;;;;;;;;;;5029678;28;20056;-67
2020/12/13 04:27:30;;;;;;;79.07;31.75;;;;;;;;;;5030249;28;20420;-67
2020/12/13 04:29:55;;;;;;;71.18;29.80;;;;;;;;;;5030213;28;20028;-67
2020/12/13 04:32:21;;;;;;;58.67;26.33;;;;;;;;;;5029851;28;20560;-67
2020/12/13 04:34:47;;;;;;;66.85;26.33;;;;;;;;;;5028596;28;20279;-67
2020/12/13 04:37:12;;;;;;;62.33;27.58;;;;;;;;;;5030603;28;20521;-67
2020/12/13 04:39:37;;;;;;;58.28;26.23;;;;;;;;;;5030010;28;20029;-66
2020/12/13 04:42:03;;;;;;;73.30;29.75;;;;;;;;;;5029950;28;20104;-67
2020/12/13 04:44:29;;;;;;;63.30;26.33;;;;;;;;;;5025416;28;20021;-67
2020/12/13 04:46:54;;;;;;;58.95;25.13;;;;;;;;;;5030105;28;20769;-66
2020/12/13 04:49:23;;;;;;;62.55;25.77;;;;;;;;;;5030084;28;20021;-66
2020/12/13 04:51:50;;;;;;;61.22;25.92;;;;;;;;;;5030306;28;20028;-67
2020/12/13 04:54:18;;;;;;;58.75;22.60;;;;;;;;;;5025672;28;20023;-67
2020/12/13 04:56:43;;;;;;;51.22;22.67;;;;;;;;;;5030019;28;20021;-67
2020/12/13 04:59:08;;;;;;;60.05;25.52;;;;;;;;;;5029413;28;20188;-67
2020/12/13 05:01:33;;;;;;;46.03;19.08;;;;;;;;;;5029952;28;20027;-66
2020/12/13 05:03:59;;;;;;;40.42;16.95;;;;;;;;;;5025646;28;20382;-67
2020/12/13 05:06:28;;;;;;;47.65;21.20;;;;;;;;;;5029720;28;20339;-67
2020/12/13 05:08:53;;;;;;;37.58;18.52;;;;;;;;;;5029868;28;20033;-67
2020/12/13 05:11:18;;;;;;;27.63;12.55;;;;;;;;;;5029716;28;20056;-67
2020/12/13 05:13:43;;;;;;;41.90;18.27;;;;;;;;;;5027620;28;20391;-66
2020/12/13 05:16:09;;;;;;;36.47;15.63;;;;;;;;;;5029954;28;20268;-66
2020/12/13 05:18:40;;;;;;;42.53;16.70;;;;;;;;;;5029526;28;20668;-66
2020/12/13 05:21:06;;;;;;;46.00;23.05;;;;;;;;;;5029924;28;20025;-66
2020/12/13 05:23:32;;;;;;;47.60;22.50;;;;;;;;;;5029479;28;20028;-66
2020/12/13 05:25:57;;;;;;;45.60;19.42;;;;;;;;;;5029142;28;20096;-66
2020/12/13 05:28:23;;;;;;;47.22;20.98;;;;;;;;;;5028921;28;20071;-66
2020/12/13 05:30:49;;;;;;;37.28;16.63;;;;;;;;;;5029959;28;20030;-66
2020/12/13 05:33:24;;;;;;;32.20;14.75;;;;;;;;;;5029844;28;20021;-66
2020/12/13 05:35:49;;;;;;;45.67;18.05;;;;;;;;;;5008928;28;20086;-66
2020/12/13 05:38:15;;;;;;;41.35;18.88;;;;;;;;;;5029572;28;20112;-67
2020/12/13 05:40:41;;;;;;;40.30;19.35;;;;;;;;;;5025181;28;20034;-66
2020/12/13 05:43:11;;;;;;;34.15;17.08;;;;;;;;;;5010916;28;20021;-66
2020/12/13 05:50:49;;;;;;;34.17;16.98;;;;;;;;;;5029443;28;20079;-66
2020/12/13 05:53:14;;;;;;;26.95;14.25;;;;;;;;;;5029430;28;20370;-67
2020/12/13 05:55:40;;;;;;;33.85;15.15;;;;;;;;;;5029276;28;20024;-66
2020/12/13 05:58:05;;;;;;;33.60;14.88;;;;;;;;;;5029293;28;20021;-66
2020/12/13 06:00:31;;;;;;;30.88;16.55;;;;;;;;;;5029395;28;20034;-66
2020/12/13 06:02:57;;;;;;;40.08;18.63;;;;;;;;;;5029240;28;20021;-67
2020/12/13 06:05:22;;;;;;;28.05;13.75;;;;;;;;;;5029546;28;20025;-66
2020/12/13 06:07:48;;;;;;;49.08;22.90;;;;;;;;;;5033330;28;20101;-66
2020/12/13 06:10:16;;;;;;;75.57;30.63;;;;;;;;;;5032657;28;20026;-66
2020/12/13 06:12:42;;;;;;;48.63;22.75;;;;;;;;;;5033344;28;20021;-66
2020/12/13 06:15:07;;;;;;;49.22;23.10;;;;;;;;;;5032245;28;20061;-66
2020/12/13 06:17:32;;;;;;;41.70;19.23;;;;;;;;;;5033088;28;20100;-66
2020/12/13 06:19:58;;;;;;;32.67;16.52;;;;;;;;;;5014345;28;20223;-67
2020/12/13 06:22:24;;;;;;;43.33;17.83;;;;;;;;;;5032595;28;20271;-66
2020/12/13 06:24:50;;;;;;;40.05;22.60;;;;;;;;;;5031551;28;20094;-66
2020/12/13 06:27:17;;;;;;;35.35;18.90;;;;;;;;;;5033158;28;20489;-66
2020/12/13 06:29:44;;;;;;;41.80;18.17;;;;;;;;;;5033003;28;20033;-66
2020/12/13 06:32:09;;;;;;;49.95;24.98;;;;;;;;;;5033460;28;20033;-67
2020/12/13 06:34:35;;;;;;;46.47;21.75;;;;;;;;;;5014590;28;20021;-67
2020/12/13 06:37:01;;;;;;;48.75;22.23;;;;;;;;;;5032057;28;20028;-66
2020/12/13 06:39:26;;;;;;;37.10;18.40;;;;;;;;;;5031944;28;20021;-66
2020/12/13 06:41:52;;;;;;;49.08;23.75;;;;;;;;;;5032466;28;20529;-66
2020/12/13 06:44:18;;;;;;;52.40;25.33;;;;;;;;;;5030359;28;20021;-66
2020/12/13 06:46:44;;;;;;;50.63;24.33;;;;;;;;;;5032369;28;20040;-66
2020/12/13 06:49:10;;;;;;;52.53;23.80;;;;;;;;;;5032237;28;20673;-66
2020/12/13 06:51:37;;;;;;;45.92;21.48;;;;;;;;;;5032729;28;20374;-66
2020/12/13 06:54:03;;;;;;;53.13;24.50;;;;;;;;;;5030031;28;20028;-67
2020/12/13 06:56:29;;;;;;;55.38;23.17;;;;;;;;;;5032508;28;20021;-66
2020/12/13 06:58:55;;;;;;;60.45;24.02;;;;;;;;;;5032255;28;20488;-66
2020/12/13 07:01:22;;;;;;;59.35;25.90;;;;;;;;;;5032282;28;20018;-66
2020/12/13 07:03:47;;;;;;;54.70;24.80;;;;;;;;;;5027721;28;20025;-66
2020/12/13 07:06:19;;;;;;;52.47;23.38;;;;;;;;;;5032205;28;20528;-66
2020/12/13 07:08:54;;;;;;;35.75;15.43;;;;;;;;;;5028660;28;20022;-66
2020/12/13 07:11:22;;;;;;;39.20;18.08;;;;;;;;;;5031853;28;20022;-66
2020/12/13 07:13:48;;;;;;;35.40;16.70;;;;;;;;;;5031973;28;20022;-67
2020/12/13 07:16:31;;;;;;;46.67;17.17;;;;;;;;;;5030459;28;20446;-66
2020/12/13 07:19:01;;;;;;;35.17;16.65;;;;;;;;;;5031179;28;20028;-66
2020/12/13 07:21:26;;;;;;;26.53;11.00;;;;;;;;;;5031909;28;20100;-66
2020/12/13 07:23:51;;;;;;;41.70;17.38;;;;;;;;;;5031155;28;20109;-66
2020/12/13 07:26:17;;;;;;;46.45;18.63;;;;;;;;;;5029527;28;20128;-66
2020/12/13 07:28:43;;;;;;;30.92;15.35;;;;;;;;;;5031830;28;20666;-66
2020/12/13 07:31:08;;;;;;;38.38;17.13;;;;;;;;;;5030999;28;20029;-66
2020/12/13 07:33:33;;;;;;;28.83;14.48;;;;;;;;;;5031629;28;20025;-66
2020/12/13 07:35:59;;;;;;;29.75;12.93;;;;;;;;;;5029709;28;20075;-66
2020/12/13 07:38:24;;;;;;;45.42;17.60;;;;;;;;;;5031806;28;20532;-66
2020/12/13 07:40:50;;;;;;;47.57;20.70;;;;;;;;;;5025973;28;20037;-66
2020/12/13 07:43:15;;;;;;;42.58;20.58;;;;;;;;;;5031495;28;20268;-66
2020/12/13 07:45:40;;;;;;;32.03;17.13;;;;;;;;;;5048760;22;20103;-73
2020/12/13 07:48:05;;;;;;;48.35;21.27;;;;;;;;;;5009417;28;20746;-73
2020/12/13 07:50:34;;;;;;;46.50;19.30;;;;;;;;;;5011163;28;20053;-73
2020/12/13 07:53:02;;;;;;;48.90;20.65;;;;;;;;;;4994565;28;20470;-73
2020/12/13 07:55:28;;;;;;;42.88;17.75;;;;;;;;;;5011905;28;20084;-73
2020/12/13 07:57:53;;;;;;;44.22;18.63;;;;;;;;;;5012265;28;20333;-73
2020/12/13 08:00:19;;;;;;;41.25;16.25;;;;;;;;;;5011715;28;20088;-73
2020/12/13 08:02:44;;;;;;;41.75;16.08;;;;;;;;;;5012109;28;20099;-73
2020/12/13 08:05:11;;;;;;;40.30;19.80;;;;;;;;;;5000647;28;20386;-73
2020/12/13 08:07:36;;;;;;;40.13;19.08;;;;;;;;;;5006239;28;20264;-74
2020/12/13 08:10:02;;;;;;;38.60;14.43;;;;;;;;;;4996184;28;20040;-74
2020/12/13 08:12:29;;;;;;;44.55;18.90;;;;;;;;;;4992334;28;20603;-73
2020/12/13 08:14:54;;;;;;;53.83;19.05;;;;;;;;;;4999702;28;20478;-74
2020/12/13 08:17:19;;;;;;;48.23;18.77;;;;;;;;;;5008662;28;20306;-74
2020/12/13 08:19:47;;;;;;;44.13;17.70;;;;;;;;;;4973489;28;20372;-73
2020/12/13 08:22:26;;;;;;;42.60;16.73;;;;;;;;;;4991769;28;20962;-74
2020/12/13 08:24:52;;;;;;;38.83;16.77;;;;;;;;;;4992765;28;20069;-73
2020/12/13 08:27:17;;;;;;;37.33;15.80;;;;;;;;;;4991784;28;20579;-74
2020/12/13 08:29:43;;;;;;;40.55;16.38;;;;;;;;;;4992072;28;20030;-73
2020/12/13 08:32:12;;;;;;;50.67;16.50;;;;;;;;;;4990784;28;20026;-73
2020/12/13 08:34:37;;;;;;;35.40;15.50;;;;;;;;;;4990126;28;20113;-73
2020/12/13 08:37:03;;;;;;;49.95;17.67;;;;;;;;;;4974038;28;20113;-73
2020/12/13 08:39:34;;;;;;;41.57;17.63;;;;;;;;;;4991250;28;20030;-73
2020/12/13 08:42:00;;;;;;;42.88;17.55;;;;;;;;;;4993486;28;20813;-73
2020/12/13 08:44:26;;;;;;;51.58;19.40;;;;;;;;;;4990934;28;20105;-73
2020/12/13 08:46:52;;;;;;;39.33;17.65;;;;;;;;;;4968253;28;20037;-73
2020/12/13 08:49:23;;;;;;;37.35;17.58;;;;;;;;;;4990509;28;20039;-73
2020/12/13 08:51:48;;;;;;;36.35;14.90;;;;;;;;;;4993286;28;20026;-74
2020/12/13 08:54:14;;;;;;;37.53;15.75;;;;;;;;;;4990739;28;20026;-73
2020/12/13 08:56:39;;;;;;;42.38;16.55;;;;;;;;;;4990753;28;20096;-73
2020/12/13 08:59:05;;;;;;;50.42;18.65;;;;;;;;;;4990668;28;20027;-73
2020/12/13 09:01:33;;;;;;;43.63;16.20;;;;;;;;;;4990553;28;20014;-72
2020/12/13 09:03:59;;;;;;;44.85;17.98;;;;;;;;;;4989981;28;20014;-72
2020/12/13 09:06:27;;;;;;;43.22;16.15;;;;;;;;;;4990760;28;20025;-72
2020/12/13 09:08:52;;;;;;;40.08;13.13;;;;;;;;;;4990642;28;20101;-72
2020/12/13 09:11:33;;;;;;;40.28;15.63;;;;;;;;;;4991100;28;20172;-72
2020/12/13 09:13:58;;;;;;;;;;;;;;;;;;4991063;28;20034;-72
2020/12/13 09:16:27;;;;;;;48.08;20.38;;;;;;;;;;4972409;28;19910;-73
2020/12/13 09:19:09;;;;;;;40.80;14.48;;;;;;;;;;4989289;28;20527;-73
2020/12/13 09:22:00;;;;;;;40.22;17.88;;;;;;;;;;4993400;28;20540;-73
2020/12/13 09:24:27;;;;;;;38.97;19.10;;;;;;;;;;4987454;28;20574;-73
2020/12/13 09:27:03;;;;;;;50.53;18.08;;;;;;;;;;4990703;28;20026;-73
2020/12/13 09:29:29;;;;;;;44.53;17.90;;;;;;;;;;4973035;28;20026;-73
2020/12/13 09:31:54;;;;;;;52.15;20.70;;;;;;;;;;4992186;28;20026;-73
2020/12/13 09:34:20;;;;;;;46.78;20.17;;;;;;;;;;4990650;28;20049;-73
2020/12/13 09:36:45;;;;;;;54.70;20.65;;;;;;;;;;4989865;28;20069;-73
2020/12/13 09:39:10;;;;;;;41.13;17.80;;;;;;;;;;4990161;28;20104;-73
2020/12/13 09:41:35;;;;;;;47.07;19.40;;;;;;;;;;4997468;28;20030;-73
2020/12/13 09:44:01;;;;;;;48.38;20.70;;;;;;;;;;4994567;28;20265;-73
2020/12/13 09:46:26;;;;;;;46.40;19.40;;;;;;;;;;4993818;28;20030;-73
2020/12/13 09:48:52;;;;;;;50.55;20.83;;;;;;;;;;4993747;28;20285;-73
2020/12/13 09:51:17;;;;;;;50.42;21.23;;;;;;;;;;4997520;28;20018;-73
2020/12/13 09:53:43;;;;;;;51.53;20.35;;;;;;;;;;4994344;28;20510;-73
2020/12/13 09:56:08;;;;;;;51.47;20.77;;;;;;;;;;4994222;28;20061;-73
2020/12/13 09:58:33;;;;;;;47.97;19.60;;;;;;;;;;4994213;28;20109;-73
2020/12/13 10:00:58;;;;;;;37.17;17.07;;;;;;;;;;4993076;28;20521;-74
2020/12/13 10:03:24;;;;;;;44.90;19.08;;;;;;;;;;4979217;28;20335;-74
2020/12/13 10:06:10;;;;;;;32.92;18.35;;;;;;;;;;4992701;28;20029;-73
2020/12/13 10:11:20;;;;;;;41.70;18.20;;;;;;;;;;4991255;28;20582;-73
2020/12/13 10:13:45;;;;;;;31.90;13.77;;;;;;;;;;4993333;28;20113;-73
2020/12/13 10:16:11;;;;;;;39.13;19.07;;;;;;;;;;4993233;28;20367;-73
2020/12/13 10:18:36;;;;;;;40.95;17.58;;;;;;;;;;4992900;28;20269;-73
2020/12/13 10:21:01;;;;;;;39.75;18.30;;;;;;;;;;4993654;28;20026;-73
2020/12/13 10:23:26;;;;;;;40.05;17.55;;;;;;;;;;4993492;28;20022;-73
2020/12/13 10:25:51;;;;;;;32.03;15.53;;;;;;;;;;4992958;28;20034;-73
2020/12/13 10:28:17;;;;;;;36.83;15.90;;;;;;;;;;4993395;28;20352;-73
2020/12/13 10:30:42;;;;;;;37.58;17.30;;;;;;;;;;4991685;28;20030;-73
2020/12/13 10:33:07;;;;;;;39.50;14.63;;;;;;;;;;4994723;28;20072;-74
2020/12/13 10:35:37;;;;;;;25.65;13.73;;;;;;;;;;4989841;28;20023;-73
2020/12/13 10:38:02;;;;;;;30.45;13.30;;;;;;;;;;4992740;28;20030;-73
2020/12/13 10:40:27;;;;;;;35.53;15.27;;;;;;;;;;4992538;28;20048;-73
2020/12/13 10:42:52;;;;;;;34.00;16.08;;;;;;;;;;4992587;28;20270;-73
2020/12/13 10:45:18;;;;;;;31.83;13.27;;;;;;;;;;4993392;28;20474;-73
2020/12/13 10:47:43;;;;;;;31.30;13.57;;;;;;;;;;4992848;28;20268;-73
2020/12/13 10:50:08;;;;;;;30.37;14.77;;;;;;;;;;4992709;28;20018;-74
2020/12/13 10:52:33;;;;;;;24.90;11.43;;;;;;;;;;4990877;28;20276;-73
2020/12/13 10:54:58;;;;;;;26.50;11.77;;;;;;;;;;4992718;28;20265;-73
2020/12/13 10:57:25;;;;;;;24.80;12.82;;;;;;;;;;4992556;28;20261;-73
2020/12/13 10:59:50;;;;;;;29.95;11.75;;;;;;;;;;4991933;28;20026;-73
2020/12/13 11:02:15;;;;;;;19.75;9.88;;;;;;;;;;4992396;28;20025;-73
2020/12/13 11:04:40;;;;;;;32.27;11.73;;;;;;;;;;4992620;28;20022;-73
2020/12/13 11:07:06;;;;;;;25.40;9.83;;;;;;;;;;5000447;28;20276;-73
2020/12/13 11:09:31;;;;;;;21.55;10.02;;;;;;;;;;4992853;28;20361;-73
2020/12/13 11:11:56;;;;;;;23.07;9.73;;;;;;;;;;4991151;28;20398;-73
2020/12/13 11:14:21;;;;;;;24.33;9.75;;;;;;;;;;4992188;28;20270;-73
2020/12/13 11:16:47;;;;;;;17.47;6.70;;;;;;;;;;4992464;28;20077;-73
2020/12/13 11:19:12;;;;;;;12.65;5.55;;;;;;;;;;4991042;28;20268;-73
2020/12/13 11:21:42;;;;;;;13.82;5.18;;;;;;;;;;4991890;28;20022;-73
2020/12/13 11:24:07;;;;;;;11.40;5.00;;;;;;;;;;4992672;28;20026;-73
2020/12/13 11:26:33;;;;;;;10.18;4.30;;;;;;;;;;4991877;28;20029;-74
2020/12/13 11:28:58;;;;;;;10.43;4.93;;;;;;;;;;4990889;28;20829;-73
2020/12/13 11:31:23;;;;;;;14.05;4.35;;;;;;;;;;4992895;28;20369;-74
2020/12/13 11:33:48;;;;;;;10.43;3.90;;;;;;;;;;4981305;28;20027;-73
2020/12/13 11:36:13;;;;;;;9.27;4.75;;;;;;;;;;4991498;28;20292;-73
2020/12/13 11:38:38;;;;;;;9.60;4.18;;;;;;;;;;4991207;28;20034;-73
2020/12/13 11:41:04;;;;;;;5.43;3.50;;;;;;;;;;4991075;28;20030;-73
2020/12/13 11:43:29;;;;;;;8.68;4.07;;;;;;;;;;4990216;28;20661;-73
2020/12/13 11:45:54;;;;;;;9.13;4.18;;;;;;;;;;4990377;28;20037;-74
2020/12/13 11:48:19;;;;;;;8.60;4.37;;;;;;;;;;4990564;28;20034;-74
2020/12/13 11:50:50;;;;;;;17.48;4.07;;;;;;;;;;4990193;28;20266;-74
2020/12/13 11:53:15;;;;;;;8.90;3.00;;;;;;;;;;4991210;28;20029;-74
2020/12/13 11:55:41;;;;;;;13.80;3.40;;;;;;;;;;4991025;28;20015;-74
2020/12/13 11:58:06;;;;;;;10.63;3.10;;;;;;;;;;4990337;28;20014;-74
2020/12/13 12:00:31;;;;;;;5.50;3.30;;;;;;;;;;4990277;28;20037;-74
2020/12/13 12:02:57;;;;;;;6.20;3.28;;;;;;;;;;4989880;28;20305;-74
2020/12/13 12:05:22;;;;;;;9.32;3.15;;;;;;;;;;4990778;28;20025;-74
2020/12/13 12:07:47;;;;;;;10.82;3.33;;;;;;;;;;4990515;28;20026;-74
2020/12/13 12:10:12;;;;;;;8.10;3.42;;;;;;;;;;4990114;28;20133;-74
2020/12/13 12:12:38;;;;;;;6.20;2.85;;;;;;;;;;4990470;28;20023;-74
2020/12/13 12:15:04;;;;;;;12.10;3.30;;;;;;;;;;4991148;28;20495;-74
2020/12/13 12:17:29;;;;;;;5.63;2.42;;;;;;;;;;4989592;28;20289;-74
2020/12/13 12:19:54;;;;;;;5.32;2.28;;;;;;;;;;4989428;28;20108;-74
2020/12/13 12:22:20;;;;;;;6.63;2.85;;;;;;;;;;4991739;28;20053;-74
2020/12/13 12:24:45;;;;;;;4.57;2.47;;;;;;;;;;4990115;28;20108;-74
2020/12/13 12:27:10;;;;;;;7.15;2.67;;;;;;;;;;4989815;28;20037;-74
2020/12/13 12:29:36;;;;;;;2.38;1.10;;;;;;;;;;4972551;28;20495;-74
2020/12/13 12:32:02;;;;;;;6.78;2.40;;;;;;;;;;4991021;28;20034;-74
2020/12/13 12:34:27;;;;;;;4.55;1.85;;;;;;;;;;4989140;28;20034;-74
2020/12/13 12:36:52;;;;;;;8.43;1.58;;;;;;;;;;4990214;28;20105;-74
2020/12/13 12:39:17;;;;;;;2.97;1.30;;;;;;;;;;4989594;28;20113;-74
2020/12/13 12:41:43;;;;;;;6.77;1.57;;;;;;;;;;4990047;28;20600;-74
2020/12/13 12:44:08;;;;;;;3.92;2.25;;;;;;;;;;4989178;28;20272;-74
2020/12/13 12:46:33;;;;;;;3.72;1.38;;;;;;;;;;4989530;28;20054;-74
2020/12/13 12:48:58;;;;;;;6.28;1.23;;;;;;;;;;4985941;28;20031;-74
2020/12/13 12:51:27;;;;;;;6.68;1.40;;;;;;;;;;4972338;28;20049;-74
2020/12/13 12:53:52;;;;;;;7.03;1.52;;;;;;;;;;4972107;28;20031;-74
2020/12/13 12:56:17;;;;;;;4.15;1.20;;;;;;;;;;4989482;28;20105;-74
2020/12/13 13:01:11;;;;;;;4.93;1.83;;;;;;;;;;4989575;28;20289;-74
2020/12/13 13:03:37;;;;;;;3.92;2.22;;;;;;;;;;4988885;28;20048;-74
2020/12/13 13:06:26;;;;;;;6.60;1.50;;;;;;;;;;4990512;28;20054;-71
2020/12/13 13:11:45;;;;;;;2.13;1.00;;;;;;;;;;4972089;28;20073;-71
2020/12/13 13:14:11;;;;;;;5.30;1.70;;;;;;;;;;4988970;28;20054;-71
2020/12/13 13:16:36;;;;;;;6.57;1.20;;;;;;;;;;4988715;28;20063;-73
2020/12/13 13:19:04;;;;;;;3.47;1.00;;;;;;;;;;4988319;28;20076;-72
2020/12/13 13:21:35;;;;;;;2.95;1.25;;;;;;;;;;4989941;28;20022;-73
2020/12/13 13:24:01;;;;;;;3.53;1.60;;;;;;;;;;4988780;28;20018;-72
2020/12/13 13:26:26;;;;;;;4.30;1.77;;;;;;;;;;4988653;28;20105;-72
2020/12/13 13:28:52;;;;;;;5.90;1.60;;;;;;;;;;4988811;28;20025;-72
2020/12/13 13:31:17;;;;;;;8.90;1.08;;;;;;;;;;4988781;28;20029;-72
2020/12/13 13:33:43;;;;;;;3.95;1.17;;;;;;;;;;4989012;28;20105;-74
2020/12/13 13:36:12;;;;;;;1.25;0.75;;;;;;;;;;4986064;28;20357;-72
2020/12/13 13:38:37;;;;;;;4.43;1.40;;;;;;;;;;4989253;28;20034;-72
2020/12/13 13:41:04;;;;;;;2.28;1.10;;;;;;;;;;4988807;28;20030;-72
2020/12/13 13:43:30;;;;;;;0.68;0.65;;;;;;;;;;4989727;28;20019;-73
2020/12/13 13:48:42;;;;;;;9.43;2.40;;;;;;;;;;4986289;28;20493;-75
2020/12/13 13:51:07;;;;;;;3.35;1.73;;;;;;;;;;4988562;28;20673;-76
2020/12/13 13:53:32;;;;;;;4.43;1.60;;;;;;;;;;4989051;28;20034;-75
2020/12/13 13:56:00;;;;;;;8.87;1.93;;;;;;;;;;4988898;28;20269;-75
2020/12/13 13:58:27;;;;;;;6.38;2.03;;;;;;;;;;4988609;28;20258;-75
2020/12/13 14:00:52;;;;;;;3.83;1.42;;;;;;;;;;4988229;28;20026;-75
2020/12/13 14:03:18;;;;;;;8.75;1.83;;;;;;;;;;4990393;28;20026;-76
2020/12/13 14:05:54;;;;;;;4.32;0.90;;;;;;;;;;4989106;28;20109;-75
2020/12/13 14:10:44;;;;;;;9.38;1.70;;;;;;;;;;4988979;28;20598;-76
2020/12/13 14:13:10;;;;;;;4.95;2.45;;;;;;;;;;4989396;28;20287;-74
2020/12/13 14:15:35;;;;;;;6.53;2.00;;;;;;;;;;4989499;28;20237;-73
2020/12/13 14:18:00;;;;;;;5.30;2.20;;;;;;;;;;4989508;28;20045;-73
2020/12/13 14:20:25;;;;;;;6.28;2.15;;;;;;;;;;4990321;28;20312;-73
2020/12/13 14:22:52;;;;;;;8.77;2.13;;;;;;;;;;4990117;28;20058;-74
2020/12/13 14:25:17;;;;;;;2.65;0.80;;;;;;;;;;4990114;28;20262;-74
2020/12/13 14:27:42;;;;;;;3.20;1.80;;;;;;;;;;5009954;28;20511;-74
2020/12/13 14:30:07;;;;;;;8.17;1.80;;;;;;;;;;4976898;28;20280;-75
2020/12/13 14:32:32;;;;;;;6.23;1.60;;;;;;;;;;4993811;28;20316;-74
2020/12/13 14:34:58;;;;;;;5.07;1.43;;;;;;;;;;4993503;28;20592;-74
2020/12/13 14:37:23;;;;;;;9.13;2.75;;;;;;;;;;4977577;28;20379;-75